sensor_id;sensor_type;location;lat;lon;timestamp;P1;durP1;ratioP1;P2;durP2;ratioP2
20828;SDS011;10575;50.124;8.582;2022-10-16T00:00:52;3.97;;;3.13;;
20828;SDS011;10575;50.124;8.582;2022-10-16T00:03:17;5.43;;;3.30;;
20828;SDS011;10575;50.124;8.582;2022-10-16T00:05:43;5.13;;;3.20;;
20828;SDS011;10575;50.124;8.582;2022-10-16T00:08:10;4.68;;;3.78;;
20828;SDS011;10575;50.124;8.582;2022-10-16T00:10:36;10.02;;;5.18;;
20828;SDS011;10575;50.124;8.582;2022-10-16T00:13:02;6.07;;;4.43;;
20828;SDS011;10575;50.124;8.582;2022-10-16T00:15:29;6.88;;;4.60;;
20828;SDS011;10575;50.124;8.582;2022-10-16T00:17:55;4.32;;;3.67;;
20828;SDS011;10575;50.124;8.582;2022-10-16T00:20:21;7.03;;;4.47;;
20828;SDS011;10575;50.124;8.582;2022-10-16T00:22:46;4.97;;;3.92;;
20828;SDS011;10575;50.124;8.582;2022-10-16T00:25:12;4.63;;;3.58;;
20828;SDS011;10575;50.124;8.582;2022-10-16T00:27:37;4.45;;;3.97;;
20828;SDS011;10575;50.124;8.582;2022-10-16T00:30:03;4.82;;;3.60;;
20828;SDS011;10575;50.124;8.582;2022-10-16T00:32:29;5.65;;;4.93;;
20828;SDS011;10575;50.124;8.582;2022-10-16T00:34:54;7.13;;;5.07;;
20828;SDS011;10575;50.124;8.582;2022-10-16T00:37:20;5.88;;;4.97;;
20828;SDS011;10575;50.124;8.582;2022-10-16T00:39:46;7.25;;;5.38;;
20828;SDS011;10575;50.124;8.582;2022-10-16T00:42:15;5.90;;;4.75;;
20828;SDS011;10575;50.124;8.582;2022-10-16T00:47:11;6.97;;;5.35;;
20828;SDS011;10575;50.124;8.582;2022-10-16T00:49:42;7.30;;;4.70;;
20828;SDS011;10575;50.124;8.582;2022-10-16T00:52:08;6.20;;;4.93;;
20828;SDS011;10575;50.124;8.582;2022-10-16T00:54:35;7.97;;;5.35;;
20828;SDS011;10575;50.124;8.582;2022-10-16T00:57:02;6.63;;;5.30;;
20828;SDS011;10575;50.124;8.582;2022-10-16T00:59:31;6.53;;;5.38;;
20828;SDS011;10575;50.124;8.582;2022-10-16T01:02:00;7.90;;;5.45;;
20828;SDS011;10575;50.124;8.582;2022-10-16T01:04:26;9.93;;;5.55;;
20828;SDS011;10575;50.124;8.582;2022-10-16T01:10:06;7.75;;;5.07;;
20828;SDS011;10575;50.124;8.582;2022-10-16T01:12:40;7.72;;;5.60;;
20828;SDS011;10575;50.124;8.582;2022-10-16T01:15:24;6.07;;;5.43;;
20828;SDS011;10575;50.124;8.582;2022-10-16T01:18:01;6.05;;;4.80;;
20828;SDS011;10575;50.124;8.582;2022-10-16T01:20:30;6.53;;;5.40;;
20828;SDS011;10575;50.124;8.582;2022-10-16T01:28:36;8.73;;;7.00;;
20828;SDS011;10575;50.124;8.582;2022-10-16T01:31:06;9.57;;;6.53;;
20828;SDS011;10575;50.124;8.582;2022-10-16T01:33:35;8.48;;;7.00;;
20828;SDS011;10575;50.124;8.582;2022-10-16T01:36:07;10.95;;;7.10;;
20828;SDS011;10575;50.124;8.582;2022-10-16T01:38:38;8.40;;;6.85;;
20828;SDS011;10575;50.124;8.582;2022-10-16T01:43:47;11.50;;;6.43;;
20828;SDS011;10575;50.124;8.582;2022-10-16T01:46:18;5.50;;;4.57;;
20828;SDS011;10575;50.124;8.582;2022-10-16T01:48:46;5.63;;;4.60;;
20828;SDS011;10575;50.124;8.582;2022-10-16T01:51:14;6.32;;;4.82;;
20828;SDS011;10575;50.124;8.582;2022-10-16T01:53:42;5.57;;;4.68;;
20828;SDS011;10575;50.124;8.582;2022-10-16T01:56:18;5.40;;;4.57;;
20828;SDS011;10575;50.124;8.582;2022-10-16T01:58:49;5.15;;;4.25;;
20828;SDS011;10575;50.124;8.582;2022-10-16T02:01:20;6.18;;;5.13;;
20828;SDS011;10575;50.124;8.582;2022-10-16T02:03:48;7.88;;;4.75;;
20828;SDS011;10575;50.124;8.582;2022-10-16T02:06:17;5.57;;;4.47;;
20828;SDS011;10575;50.124;8.582;2022-10-16T02:08:42;4.97;;;3.65;;
20828;SDS011;10575;50.124;8.582;2022-10-16T02:11:09;6.13;;;3.90;;
20828;SDS011;10575;50.124;8.582;2022-10-16T02:13:44;5.70;;;3.72;;
20828;SDS011;10575;50.124;8.582;2022-10-16T02:16:13;3.60;;;3.30;;
20828;SDS011;10575;50.124;8.582;2022-10-16T02:18:39;6.28;;;3.45;;
20828;SDS011;10575;50.124;8.582;2022-10-16T02:21:19;7.45;;;3.58;;
20828;SDS011;10575;50.124;8.582;2022-10-16T02:23:58;3.75;;;2.90;;
20828;SDS011;10575;50.124;8.582;2022-10-16T02:26:35;6.05;;;3.40;;
20828;SDS011;10575;50.124;8.582;2022-10-16T02:29:22;4.45;;;3.30;;
20828;SDS011;10575;50.124;8.582;2022-10-16T02:31:52;8.00;;;2.90;;
20828;SDS011;10575;50.124;8.582;2022-10-16T02:34:24;4.50;;;2.90;;
20828;SDS011;10575;50.124;8.582;2022-10-16T02:36:52;5.70;;;2.88;;
20828;SDS011;10575;50.124;8.582;2022-10-16T02:39:19;3.33;;;2.88;;
20828;SDS011;10575;50.124;8.582;2022-10-16T02:41:46;7.00;;;2.70;;
20828;SDS011;10575;50.124;8.582;2022-10-16T02:44:12;4.20;;;2.78;;
20828;SDS011;10575;50.124;8.582;2022-10-16T02:46:37;4.40;;;2.10;;
20828;SDS011;10575;50.124;8.582;2022-10-16T02:49:03;3.88;;;2.35;;
20828;SDS011;10575;50.124;8.582;2022-10-16T02:51:28;6.47;;;2.85;;
20828;SDS011;10575;50.124;8.582;2022-10-16T02:53:54;5.95;;;2.55;;
20828;SDS011;10575;50.124;8.582;2022-10-16T02:56:19;3.65;;;2.13;;
20828;SDS011;10575;50.124;8.582;2022-10-16T02:58:45;3.20;;;2.17;;
20828;SDS011;10575;50.124;8.582;2022-10-16T03:01:11;7.43;;;2.47;;
20828;SDS011;10575;50.124;8.582;2022-10-16T03:03:37;2.50;;;2.10;;
20828;SDS011;10575;50.124;8.582;2022-10-16T03:06:03;2.83;;;1.98;;
20828;SDS011;10575;50.124;8.582;2022-10-16T03:08:29;6.07;;;2.10;;
20828;SDS011;10575;50.124;8.582;2022-10-16T03:10:54;3.97;;;2.00;;
20828;SDS011;10575;50.124;8.582;2022-10-16T03:13:20;4.88;;;2.22;;
20828;SDS011;10575;50.124;8.582;2022-10-16T03:15:46;2.22;;;2.00;;
20828;SDS011;10575;50.124;8.582;2022-10-16T03:18:11;3.47;;;1.98;;
20828;SDS011;10575;50.124;8.582;2022-10-16T03:20:37;5.72;;;2.00;;
20828;SDS011;10575;50.124;8.582;2022-10-16T03:23:03;4.50;;;1.95;;
20828;SDS011;10575;50.124;8.582;2022-10-16T03:25:28;4.53;;;2.28;;
20828;SDS011;10575;50.124;8.582;2022-10-16T03:27:54;3.05;;;2.10;;
20828;SDS011;10575;50.124;8.582;2022-10-16T03:30:19;4.93;;;1.95;;
20828;SDS011;10575;50.124;8.582;2022-10-16T03:32:45;3.97;;;1.80;;
20828;SDS011;10575;50.124;8.582;2022-10-16T03:35:11;5.45;;;2.05;;
20828;SDS011;10575;50.124;8.582;2022-10-16T03:37:36;2.10;;;1.90;;
20828;SDS011;10575;50.124;8.582;2022-10-16T03:40:02;5.00;;;2.13;;
20828;SDS011;10575;50.124;8.582;2022-10-16T03:42:28;3.80;;;1.70;;
20828;SDS011;10575;50.124;8.582;2022-10-16T03:44:54;2.97;;;1.80;;
20828;SDS011;10575;50.124;8.582;2022-10-16T03:47:20;1.88;;;1.70;;
20828;SDS011;10575;50.124;8.582;2022-10-16T03:49:47;1.77;;;1.63;;
20828;SDS011;10575;50.124;8.582;2022-10-16T03:52:13;5.15;;;2.10;;
20828;SDS011;10575;50.124;8.582;2022-10-16T03:54:38;2.53;;;2.00;;
20828;SDS011;10575;50.124;8.582;2022-10-16T03:57:04;6.78;;;1.60;;
20828;SDS011;10575;50.124;8.582;2022-10-16T03:59:29;2.00;;;1.70;;
20828;SDS011;10575;50.124;8.582;2022-10-16T04:01:55;2.75;;;1.95;;
20828;SDS011;10575;50.124;8.582;2022-10-16T04:04:20;4.82;;;2.05;;
20828;SDS011;10575;50.124;8.582;2022-10-16T04:06:46;3.75;;;1.52;;
20828;SDS011;10575;50.124;8.582;2022-10-16T04:09:11;2.60;;;1.90;;
20828;SDS011;10575;50.124;8.582;2022-10-16T04:11:37;5.18;;;1.60;;
20828;SDS011;10575;50.124;8.582;2022-10-16T04:14:03;3.20;;;2.00;;
20828;SDS011;10575;50.124;8.582;2022-10-16T04:16:29;1.85;;;1.60;;
20828;SDS011;10575;50.124;8.582;2022-10-16T04:18:54;3.65;;;1.90;;
20828;SDS011;10575;50.124;8.582;2022-10-16T04:21:20;2.15;;;1.70;;
20828;SDS011;10575;50.124;8.582;2022-10-16T04:23:45;5.22;;;1.67;;
20828;SDS011;10575;50.124;8.582;2022-10-16T04:26:11;3.03;;;1.65;;
20828;SDS011;10575;50.124;8.582;2022-10-16T04:28:36;1.77;;;1.65;;
20828;SDS011;10575;50.124;8.582;2022-10-16T04:31:05;3.58;;;1.77;;
20828;SDS011;10575;50.124;8.582;2022-10-16T04:33:31;1.73;;;1.50;;
20828;SDS011;10575;50.124;8.582;2022-10-16T04:35:58;2.63;;;1.50;;
20828;SDS011;10575;50.124;8.582;2022-10-16T04:38:25;2.70;;;1.50;;
20828;SDS011;10575;50.124;8.582;2022-10-16T04:40:51;3.15;;;1.38;;
20828;SDS011;10575;50.124;8.582;2022-10-16T04:43:17;1.63;;;1.35;;
20828;SDS011;10575;50.124;8.582;2022-10-16T04:45:42;1.80;;;1.40;;
20828;SDS011;10575;50.124;8.582;2022-10-16T04:48:08;2.38;;;1.88;;
20828;SDS011;10575;50.124;8.582;2022-10-16T04:50:34;3.28;;;1.65;;
20828;SDS011;10575;50.124;8.582;2022-10-16T04:52:59;2.67;;;1.80;;
20828;SDS011;10575;50.124;8.582;2022-10-16T04:55:25;3.50;;;1.63;;
20828;SDS011;10575;50.124;8.582;2022-10-16T04:57:50;2.30;;;1.30;;
20828;SDS011;10575;50.124;8.582;2022-10-16T05:00:16;2.08;;;1.38;;
20828;SDS011;10575;50.124;8.582;2022-10-16T05:02:41;3.20;;;1.30;;
20828;SDS011;10575;50.124;8.582;2022-10-16T05:05:07;4.32;;;1.63;;
20828;SDS011;10575;50.124;8.582;2022-10-16T05:07:33;2.67;;;1.60;;
20828;SDS011;10575;50.124;8.582;2022-10-16T05:09:58;1.75;;;1.30;;
20828;SDS011;10575;50.124;8.582;2022-10-16T05:12:24;5.20;;;1.40;;
20828;SDS011;10575;50.124;8.582;2022-10-16T05:14:49;1.60;;;1.35;;
20828;SDS011;10575;50.124;8.582;2022-10-16T05:17:15;2.10;;;1.67;;
20828;SDS011;10575;50.124;8.582;2022-10-16T05:19:40;1.70;;;1.60;;
20828;SDS011;10575;50.124;8.582;2022-10-16T05:22:06;2.67;;;1.60;;
20828;SDS011;10575;50.124;8.582;2022-10-16T05:24:31;2.80;;;1.70;;
20828;SDS011;10575;50.124;8.582;2022-10-16T05:26:57;2.40;;;1.75;;
20828;SDS011;10575;50.124;8.582;2022-10-16T05:29:22;1.88;;;1.50;;
20828;SDS011;10575;50.124;8.582;2022-10-16T05:31:52;3.05;;;1.83;;
20828;SDS011;10575;50.124;8.582;2022-10-16T05:34:18;2.72;;;1.63;;
20828;SDS011;10575;50.124;8.582;2022-10-16T05:36:44;2.40;;;1.60;;
20828;SDS011;10575;50.124;8.582;2022-10-16T05:39:10;3.50;;;1.63;;
20828;SDS011;10575;50.124;8.582;2022-10-16T05:41:36;3.13;;;1.88;;
20828;SDS011;10575;50.124;8.582;2022-10-16T05:44:03;2.15;;;1.50;;
20828;SDS011;10575;50.124;8.582;2022-10-16T05:46:30;1.83;;;1.50;;
20828;SDS011;10575;50.124;8.582;2022-10-16T05:48:56;5.45;;;1.90;;
20828;SDS011;10575;50.124;8.582;2022-10-16T05:51:21;2.10;;;1.90;;
20828;SDS011;10575;50.124;8.582;2022-10-16T05:53:47;5.72;;;2.00;;
20828;SDS011;10575;50.124;8.582;2022-10-16T05:56:13;2.20;;;1.80;;
20828;SDS011;10575;50.124;8.582;2022-10-16T05:58:39;3.05;;;1.80;;
20828;SDS011;10575;50.124;8.582;2022-10-16T06:01:16;3.20;;;2.45;;
20828;SDS011;10575;50.124;8.582;2022-10-16T06:03:42;3.38;;;2.15;;
20828;SDS011;10575;50.124;8.582;2022-10-16T06:06:09;5.43;;;2.42;;
20828;SDS011;10575;50.124;8.582;2022-10-16T06:08:54;5.13;;;2.70;;
20828;SDS011;10575;50.124;8.582;2022-10-16T06:11:22;3.53;;;2.80;;
20828;SDS011;10575;50.124;8.582;2022-10-16T06:13:54;5.63;;;4.63;;
20828;SDS011;10575;50.124;8.582;2022-10-16T06:16:21;5.18;;;2.67;;
20828;SDS011;10575;50.124;8.582;2022-10-16T06:18:48;4.63;;;1.70;;
20828;SDS011;10575;50.124;8.582;2022-10-16T06:21:17;3.17;;;2.10;;
20828;SDS011;10575;50.124;8.582;2022-10-16T06:23:44;5.28;;;2.10;;
20828;SDS011;10575;50.124;8.582;2022-10-16T06:26:13;4.70;;;2.17;;
20828;SDS011;10575;50.124;8.582;2022-10-16T06:28:41;3.95;;;3.03;;
20828;SDS011;10575;50.124;8.582;2022-10-16T06:31:07;5.03;;;2.95;;
20828;SDS011;10575;50.124;8.582;2022-10-16T06:33:34;6.65;;;3.25;;
20828;SDS011;10575;50.124;8.582;2022-10-16T06:36:01;4.15;;;2.80;;
20828;SDS011;10575;50.124;8.582;2022-10-16T06:38:31;3.47;;;2.40;;
20828;SDS011;10575;50.124;8.582;2022-10-16T06:40:57;5.63;;;2.20;;
20828;SDS011;10575;50.124;8.582;2022-10-16T06:43:22;6.55;;;3.78;;
20828;SDS011;10575;50.124;8.582;2022-10-16T06:45:55;5.65;;;3.45;;
20828;SDS011;10575;50.124;8.582;2022-10-16T06:48:21;7.00;;;3.15;;
20828;SDS011;10575;50.124;8.582;2022-10-16T06:50:54;5.15;;;2.90;;
20828;SDS011;10575;50.124;8.582;2022-10-16T06:53:24;3.28;;;2.33;;
20828;SDS011;10575;50.124;8.582;2022-10-16T06:55:51;4.38;;;2.58;;
20828;SDS011;10575;50.124;8.582;2022-10-16T06:58:16;4.53;;;2.35;;
20828;SDS011;10575;50.124;8.582;2022-10-16T07:00:42;3.80;;;2.85;;
20828;SDS011;10575;50.124;8.582;2022-10-16T07:03:07;11.35;;;7.35;;
20828;SDS011;10575;50.124;8.582;2022-10-16T07:05:37;10.02;;;6.85;;
20828;SDS011;10575;50.124;8.582;2022-10-16T07:08:03;8.38;;;6.30;;
20828;SDS011;10575;50.124;8.582;2022-10-16T07:10:30;15.65;;;10.82;;
20828;SDS011;10575;50.124;8.582;2022-10-16T07:12:56;10.45;;;8.00;;
20828;SDS011;10575;50.124;8.582;2022-10-16T07:15:21;10.65;;;4.35;;
20828;SDS011;10575;50.124;8.582;2022-10-16T07:17:47;3.35;;;2.60;;
20828;SDS011;10575;50.124;8.582;2022-10-16T07:20:12;3.25;;;2.60;;
20828;SDS011;10575;50.124;8.582;2022-10-16T07:22:38;4.63;;;3.88;;
20828;SDS011;10575;50.124;8.582;2022-10-16T07:25:04;4.05;;;2.63;;
20828;SDS011;10575;50.124;8.582;2022-10-16T07:27:29;5.00;;;3.00;;
20828;SDS011;10575;50.124;8.582;2022-10-16T07:29:55;3.00;;;2.50;;
20828;SDS011;10575;50.124;8.582;2022-10-16T07:32:20;3.88;;;2.50;;
20828;SDS011;10575;50.124;8.582;2022-10-16T07:34:46;2.42;;;2.15;;
20828;SDS011;10575;50.124;8.582;2022-10-16T07:37:11;2.63;;;2.22;;
20828;SDS011;10575;50.124;8.582;2022-10-16T07:39:37;4.32;;;2.65;;
20828;SDS011;10575;50.124;8.582;2022-10-16T07:42:02;6.85;;;4.80;;
20828;SDS011;10575;50.124;8.582;2022-10-16T07:44:28;4.88;;;3.78;;
20828;SDS011;10575;50.124;8.582;2022-10-16T07:46:53;4.35;;;3.60;;
20828;SDS011;10575;50.124;8.582;2022-10-16T07:49:19;3.35;;;2.90;;
20828;SDS011;10575;50.124;8.582;2022-10-16T07:51:45;3.85;;;2.60;;
20828;SDS011;10575;50.124;8.582;2022-10-16T07:54:10;4.35;;;3.22;;
20828;SDS011;10575;50.124;8.582;2022-10-16T07:56:36;5.63;;;3.45;;
20828;SDS011;10575;50.124;8.582;2022-10-16T07:59:02;7.18;;;4.45;;
20828;SDS011;10575;50.124;8.582;2022-10-16T08:01:27;5.18;;;3.88;;
20828;SDS011;10575;50.124;8.582;2022-10-16T08:03:53;10.63;;;4.07;;
20828;SDS011;10575;50.124;8.582;2022-10-16T08:06:19;5.28;;;3.10;;
20828;SDS011;10575;50.124;8.582;2022-10-16T08:08:46;5.82;;;2.78;;
20828;SDS011;10575;50.124;8.582;2022-10-16T08:11:12;5.47;;;3.20;;
20828;SDS011;10575;50.124;8.582;2022-10-16T08:13:39;4.47;;;3.05;;
20828;SDS011;10575;50.124;8.582;2022-10-16T08:16:04;3.33;;;2.78;;
20828;SDS011;10575;50.124;8.582;2022-10-16T08:18:32;3.83;;;2.63;;
20828;SDS011;10575;50.124;8.582;2022-10-16T08:21:02;3.58;;;2.83;;
20828;SDS011;10575;50.124;8.582;2022-10-16T08:23:28;4.47;;;2.42;;
20828;SDS011;10575;50.124;8.582;2022-10-16T08:25:54;11.13;;;8.40;;
20828;SDS011;10575;50.124;8.582;2022-10-16T08:28:20;6.65;;;4.90;;
20828;SDS011;10575;50.124;8.582;2022-10-16T08:30:47;4.97;;;3.90;;
20828;SDS011;10575;50.124;8.582;2022-10-16T08:33:12;5.60;;;3.65;;
20828;SDS011;10575;50.124;8.582;2022-10-16T08:35:38;5.32;;;3.30;;
20828;SDS011;10575;50.124;8.582;2022-10-16T08:38:03;3.75;;;2.92;;
20828;SDS011;10575;50.124;8.582;2022-10-16T08:40:30;4.55;;;3.60;;
20828;SDS011;10575;50.124;8.582;2022-10-16T08:45:43;7.97;;;4.85;;
20828;SDS011;10575;50.124;8.582;2022-10-16T08:50:58;6.40;;;3.65;;
20828;SDS011;10575;50.124;8.582;2022-10-16T08:53:28;4.93;;;3.22;;
20828;SDS011;10575;50.124;8.582;2022-10-16T08:55:58;7.05;;;5.30;;
20828;SDS011;10575;50.124;8.582;2022-10-16T08:58:26;10.40;;;6.75;;
20828;SDS011;10575;50.124;8.582;2022-10-16T09:00:54;10.85;;;5.47;;
20828;SDS011;10575;50.124;8.582;2022-10-16T09:03:39;7.50;;;4.38;;
20828;SDS011;10575;50.124;8.582;2022-10-16T09:19:50;7.47;;;6.38;;
20828;SDS011;10575;50.124;8.582;2022-10-16T09:22:22;8.60;;;5.93;;
20828;SDS011;10575;50.124;8.582;2022-10-16T09:24:54;8.05;;;5.50;;
20828;SDS011;10575;50.124;8.582;2022-10-16T09:27:24;6.88;;;4.97;;
20828;SDS011;10575;50.124;8.582;2022-10-16T09:29:50;5.53;;;4.20;;
20828;SDS011;10575;50.124;8.582;2022-10-16T09:32:17;6.70;;;4.10;;
20828;SDS011;10575;50.124;8.582;2022-10-16T09:34:47;4.90;;;3.28;;
20828;SDS011;10575;50.124;8.582;2022-10-16T09:37:17;7.13;;;5.50;;
20828;SDS011;10575;50.124;8.582;2022-10-16T09:39:44;6.00;;;4.20;;
20828;SDS011;10575;50.124;8.582;2022-10-16T09:42:14;7.47;;;5.75;;
20828;SDS011;10575;50.124;8.582;2022-10-16T09:44:55;4.60;;;3.70;;
20828;SDS011;10575;50.124;8.582;2022-10-16T09:47:25;3.92;;;3.00;;
20828;SDS011;10575;50.124;8.582;2022-10-16T09:49:55;11.75;;;3.80;;
20828;SDS011;10575;50.124;8.582;2022-10-16T09:52:25;5.38;;;3.78;;
20828;SDS011;10575;50.124;8.582;2022-10-16T09:54:57;6.45;;;3.25;;
20828;SDS011;10575;50.124;8.582;2022-10-16T09:57:25;8.90;;;4.22;;
20828;SDS011;10575;50.124;8.582;2022-10-16T09:59:52;12.00;;;4.05;;
20828;SDS011;10575;50.124;8.582;2022-10-16T10:02:35;6.53;;;4.60;;
20828;SDS011;10575;50.124;8.582;2022-10-16T10:05:05;7.60;;;4.30;;
20828;SDS011;10575;50.124;8.582;2022-10-16T10:07:44;12.35;;;4.50;;
20828;SDS011;10575;50.124;8.582;2022-10-16T10:10:21;6.55;;;4.30;;
20828;SDS011;10575;50.124;8.582;2022-10-16T10:12:49;8.05;;;4.63;;
20828;SDS011;10575;50.124;8.582;2022-10-16T10:15:15;6.72;;;4.07;;
20828;SDS011;10575;50.124;8.582;2022-10-16T10:17:47;7.80;;;4.10;;
20828;SDS011;10575;50.124;8.582;2022-10-16T10:20:21;5.65;;;3.90;;
20828;SDS011;10575;50.124;8.582;2022-10-16T10:22:49;6.20;;;3.50;;
20828;SDS011;10575;50.124;8.582;2022-10-16T10:28:32;6.28;;;3.38;;
20828;SDS011;10575;50.124;8.582;2022-10-16T10:33:47;5.13;;;2.60;;
20828;SDS011;10575;50.124;8.582;2022-10-16T10:36:31;5.13;;;2.58;;
20828;SDS011;10575;50.124;8.582;2022-10-16T10:38:59;4.93;;;2.58;;
20828;SDS011;10575;50.124;8.582;2022-10-16T10:44:03;7.18;;;3.55;;
20828;SDS011;10575;50.124;8.582;2022-10-16T10:46:35;3.50;;;2.30;;
20828;SDS011;10575;50.124;8.582;2022-10-16T10:52:02;5.10;;;2.22;;
20828;SDS011;10575;50.124;8.582;2022-10-16T10:55:02;9.10;;;2.38;;
20828;SDS011;10575;50.124;8.582;2022-10-16T10:57:41;3.95;;;1.88;;
20828;SDS011;10575;50.124;8.582;2022-10-16T11:00:40;2.05;;;1.50;;
20828;SDS011;10575;50.124;8.582;2022-10-16T11:03:23;2.22;;;1.50;;
20828;SDS011;10575;50.124;8.582;2022-10-16T11:06:11;4.03;;;1.50;;
20828;SDS011;10575;50.124;8.582;2022-10-16T11:11:36;2.58;;;1.50;;
20828;SDS011;10575;50.124;8.582;2022-10-16T11:24:41;4.82;;;2.42;;
20828;SDS011;10575;50.124;8.582;2022-10-16T11:27:39;2.90;;;1.98;;
20828;SDS011;10575;50.124;8.582;2022-10-16T11:30:14;4.43;;;2.10;;
20828;SDS011;10575;50.124;8.582;2022-10-16T11:32:50;3.55;;;2.70;;
20828;SDS011;10575;50.124;8.582;2022-10-16T11:38:14;4.70;;;3.50;;
20828;SDS011;10575;50.124;8.582;2022-10-16T11:40:47;11.95;;;4.57;;
20828;SDS011;10575;50.124;8.582;2022-10-16T11:43:25;7.95;;;6.18;;
20828;SDS011;10575;50.124;8.582;2022-10-16T11:45:57;7.07;;;5.35;;
20828;SDS011;10575;50.124;8.582;2022-10-16T11:51:21;7.75;;;5.15;;
20828;SDS011;10575;50.124;8.582;2022-10-16T11:53:58;4.40;;;4.00;;
20828;SDS011;10575;50.124;8.582;2022-10-16T11:56:37;6.13;;;4.30;;
20828;SDS011;10575;50.124;8.582;2022-10-16T12:04:55;5.75;;;4.63;;
20828;SDS011;10575;50.124;8.582;2022-10-16T12:07:34;4.20;;;2.85;;
20828;SDS011;10575;50.124;8.582;2022-10-16T12:10:10;6.20;;;3.33;;
20828;SDS011;10575;50.124;8.582;2022-10-16T12:12:44;3.30;;;2.97;;
20828;SDS011;10575;50.124;8.582;2022-10-16T12:15:23;4.47;;;2.70;;
20828;SDS011;10575;50.124;8.582;2022-10-16T12:17:51;4.30;;;2.88;;
20828;SDS011;10575;50.124;8.582;2022-10-16T12:22:56;4.63;;;2.72;;
20828;SDS011;10575;50.124;8.582;2022-10-16T12:25:28;3.80;;;2.38;;
20828;SDS011;10575;50.124;8.582;2022-10-16T12:28:01;3.50;;;2.70;;
20828;SDS011;10575;50.124;8.582;2022-10-16T12:30:35;2.92;;;2.50;;
20828;SDS011;10575;50.124;8.582;2022-10-16T12:33:02;4.10;;;2.92;;
20828;SDS011;10575;50.124;8.582;2022-10-16T12:35:31;2.58;;;2.22;;
20828;SDS011;10575;50.124;8.582;2022-10-16T12:38:06;4.47;;;2.75;;
20828;SDS011;10575;50.124;8.582;2022-10-16T12:40:37;3.33;;;2.80;;
20828;SDS011;10575;50.124;8.582;2022-10-16T12:43:23;6.82;;;3.00;;
20828;SDS011;10575;50.124;8.582;2022-10-16T12:48:39;3.30;;;2.80;;
20828;SDS011;10575;50.124;8.582;2022-10-16T12:56:45;3.58;;;2.20;;
20828;SDS011;10575;50.124;8.582;2022-10-16T12:59:33;3.13;;;2.40;;
20828;SDS011;10575;50.124;8.582;2022-10-16T13:02:11;2.20;;;2.00;;
20828;SDS011;10575;50.124;8.582;2022-10-16T13:05:02;2.75;;;2.33;;
20828;SDS011;10575;50.124;8.582;2022-10-16T13:10:23;6.90;;;2.80;;
20828;SDS011;10575;50.124;8.582;2022-10-16T13:18:18;11.27;;;6.63;;
20828;SDS011;10575;50.124;8.582;2022-10-16T13:29:14;12.93;;;10.30;;
20828;SDS011;10575;50.124;8.582;2022-10-16T13:31:40;12.25;;;8.82;;
20828;SDS011;10575;50.124;8.582;2022-10-16T13:34:11;14.98;;;13.20;;
20828;SDS011;10575;50.124;8.582;2022-10-16T13:36:48;6.05;;;5.40;;
20828;SDS011;10575;50.124;8.582;2022-10-16T13:41:58;4.28;;;3.15;;
20828;SDS011;10575;50.124;8.582;2022-10-16T13:44:53;4.90;;;4.40;;
20828;SDS011;10575;50.124;8.582;2022-10-16T13:47:27;3.67;;;3.38;;
20828;SDS011;10575;50.124;8.582;2022-10-16T13:50:01;4.85;;;2.85;;
20828;SDS011;10575;50.124;8.582;2022-10-16T13:52:28;2.50;;;2.30;;
20828;SDS011;10575;50.124;8.582;2022-10-16T13:54:54;2.00;;;1.77;;
20828;SDS011;10575;50.124;8.582;2022-10-16T13:57:21;3.38;;;2.95;;
20828;SDS011;10575;50.124;8.582;2022-10-16T13:59:48;4.00;;;3.60;;
20828;SDS011;10575;50.124;8.582;2022-10-16T14:02:18;2.53;;;2.28;;
20828;SDS011;10575;50.124;8.582;2022-10-16T14:04:46;3.22;;;2.22;;
20828;SDS011;10575;50.124;8.582;2022-10-16T14:07:18;2.35;;;2.05;;
20828;SDS011;10575;50.124;8.582;2022-10-16T14:09:49;2.55;;;2.00;;
20828;SDS011;10575;50.124;8.582;2022-10-16T14:12:15;2.60;;;1.70;;
20828;SDS011;10575;50.124;8.582;2022-10-16T14:14:45;2.00;;;1.80;;
20828;SDS011;10575;50.124;8.582;2022-10-16T14:17:15;2.30;;;1.70;;
20828;SDS011;10575;50.124;8.582;2022-10-16T14:19:47;1.98;;;1.73;;
20828;SDS011;10575;50.124;8.582;2022-10-16T14:22:34;2.00;;;1.70;;
20828;SDS011;10575;50.124;8.582;2022-10-16T14:25:15;3.05;;;1.88;;
20828;SDS011;10575;50.124;8.582;2022-10-16T14:27:44;2.53;;;2.00;;
20828;SDS011;10575;50.124;8.582;2022-10-16T14:32:36;4.68;;;1.92;;
20828;SDS011;10575;50.124;8.582;2022-10-16T14:35:11;1.88;;;1.63;;
20828;SDS011;10575;50.124;8.582;2022-10-16T14:37:58;2.00;;;1.80;;
20828;SDS011;10575;50.124;8.582;2022-10-16T14:40:26;2.72;;;1.55;;
20828;SDS011;10575;50.124;8.582;2022-10-16T14:42:53;2.30;;;2.10;;
20828;SDS011;10575;50.124;8.582;2022-10-16T14:45:21;4.75;;;2.15;;
20828;SDS011;10575;50.124;8.582;2022-10-16T14:47:50;2.45;;;1.95;;
20828;SDS011;10575;50.124;8.582;2022-10-16T14:50:21;2.00;;;1.80;;
20828;SDS011;10575;50.124;8.582;2022-10-16T14:52:47;2.40;;;1.80;;
20828;SDS011;10575;50.124;8.582;2022-10-16T14:55:12;3.00;;;1.60;;
20828;SDS011;10575;50.124;8.582;2022-10-16T14:57:38;1.98;;;1.80;;
20828;SDS011;10575;50.124;8.582;2022-10-16T15:00:09;5.20;;;2.08;;
20828;SDS011;10575;50.124;8.582;2022-10-16T15:02:46;2.20;;;1.77;;
20828;SDS011;10575;50.124;8.582;2022-10-16T15:05:18;2.97;;;2.45;;
20828;SDS011;10575;50.124;8.582;2022-10-16T15:07:44;3.13;;;2.20;;
20828;SDS011;10575;50.124;8.582;2022-10-16T15:10:11;2.70;;;2.22;;
20828;SDS011;10575;50.124;8.582;2022-10-16T15:12:38;2.20;;;1.92;;
20828;SDS011;10575;50.124;8.582;2022-10-16T15:15:38;3.30;;;2.97;;
20828;SDS011;10575;50.124;8.582;2022-10-16T15:17:56;6.15;;;4.28;;
20828;SDS011;10575;50.124;8.582;2022-10-16T15:20:26;5.82;;;4.07;;
20828;SDS011;10575;50.124;8.582;2022-10-16T15:22:53;3.33;;;2.70;;
20828;SDS011;10575;50.124;8.582;2022-10-16T15:27:59;4.75;;;3.90;;
20828;SDS011;10575;50.124;8.582;2022-10-16T15:30:26;3.90;;;3.50;;
20828;SDS011;10575;50.124;8.582;2022-10-16T15:32:52;5.05;;;4.05;;
20828;SDS011;10575;50.124;8.582;2022-10-16T15:35:17;3.47;;;2.78;;
20828;SDS011;10575;50.124;8.582;2022-10-16T15:37:43;4.47;;;3.20;;
20828;SDS011;10575;50.124;8.582;2022-10-16T15:40:09;3.50;;;3.17;;
20828;SDS011;10575;50.124;8.582;2022-10-16T15:42:35;4.38;;;3.05;;
20828;SDS011;10575;50.124;8.582;2022-10-16T15:45:01;3.80;;;2.88;;
20828;SDS011;10575;50.124;8.582;2022-10-16T15:47:28;4.15;;;3.17;;
20828;SDS011;10575;50.124;8.582;2022-10-16T15:49:53;4.03;;;2.67;;
20828;SDS011;10575;50.124;8.582;2022-10-16T15:52:19;4.15;;;2.97;;
20828;SDS011;10575;50.124;8.582;2022-10-16T15:54:44;3.80;;;3.00;;
20828;SDS011;10575;50.124;8.582;2022-10-16T15:57:10;3.95;;;3.05;;
20828;SDS011;10575;50.124;8.582;2022-10-16T15:59:35;3.53;;;2.88;;
20828;SDS011;10575;50.124;8.582;2022-10-16T16:02:01;5.20;;;3.08;;
20828;SDS011;10575;50.124;8.582;2022-10-16T16:04:29;3.40;;;2.42;;
20828;SDS011;10575;50.124;8.582;2022-10-16T16:06:55;3.22;;;2.92;;
20828;SDS011;10575;50.124;8.582;2022-10-16T16:09:21;5.72;;;2.75;;
20828;SDS011;10575;50.124;8.582;2022-10-16T16:11:47;4.30;;;2.85;;
20828;SDS011;10575;50.124;8.582;2022-10-16T16:14:14;3.95;;;2.80;;
20828;SDS011;10575;50.124;8.582;2022-10-16T16:16:39;4.53;;;2.95;;
20828;SDS011;10575;50.124;8.582;2022-10-16T16:19:06;5.65;;;2.88;;
20828;SDS011;10575;50.124;8.582;2022-10-16T16:21:32;4.72;;;3.08;;
20828;SDS011;10575;50.124;8.582;2022-10-16T16:23:58;4.13;;;2.85;;
20828;SDS011;10575;50.124;8.582;2022-10-16T16:26:25;3.63;;;3.20;;
20828;SDS011;10575;50.124;8.582;2022-10-16T16:28:52;4.38;;;3.08;;
20828;SDS011;10575;50.124;8.582;2022-10-16T16:31:25;3.65;;;3.00;;
20828;SDS011;10575;50.124;8.582;2022-10-16T16:33:52;3.67;;;3.05;;
20828;SDS011;10575;50.124;8.582;2022-10-16T16:36:18;4.10;;;3.45;;
20828;SDS011;10575;50.124;8.582;2022-10-16T16:38:45;5.85;;;3.60;;
20828;SDS011;10575;50.124;8.582;2022-10-16T16:41:11;3.58;;;3.28;;
20828;SDS011;10575;50.124;8.582;2022-10-16T16:43:44;4.43;;;2.97;;